createdAt,value
2019-02-20T00:00:03.253Z,941.45
2019-02-20T00:01:04.524Z,941.47
2019-02-20T00:02:05.738Z,941.47
2019-02-20T00:03:06.138Z,941.46
2019-02-20T00:04:06.489Z,941.46
2019-02-20T00:05:07.217Z,941.48
2019-02-20T00:06:08.487Z,941.47
2019-02-20T00:07:08.901Z,941.47
2019-02-20T00:08:09.917Z,941.47
2019-02-20T00:09:10.504Z,941.47
2019-02-20T00:10:11.060Z,941.49
2019-02-20T00:11:11.469Z,941.51
2019-02-20T00:12:12.164Z,941.53
2019-02-20T00:13:12.620Z,941.52
2019-02-20T00:14:13.594Z,941.52
2019-02-20T00:15:14.698Z,941.51
2019-02-20T00:16:15.430Z,941.53
2019-02-20T00:17:16.130Z,941.57
2019-02-20T00:18:16.378Z,941.55
2019-02-20T00:19:17.361Z,941.56
2019-02-20T00:20:18.122Z,941.56
2019-02-20T00:21:18.378Z,941.52
2019-02-20T00:22:19.075Z,941.51
2019-02-20T00:23:19.484Z,941.51
2019-02-20T00:24:20.030Z,941.53
2019-02-20T00:25:20.740Z,941.52
2019-02-20T00:26:21.987Z,941.55
2019-02-20T00:27:22.974Z,941.57
2019-02-20T00:28:23.671Z,941.52
2019-02-20T00:29:25.067Z,941.5
2019-02-20T00:30:25.327Z,941.47
2019-02-20T00:31:26.432Z,941.49
2019-02-20T00:32:27.418Z,941.54
2019-02-20T00:33:28.536Z,941.62
2019-02-20T00:34:29.509Z,941.63
2019-02-20T00:35:30.765Z,941.63
2019-02-20T00:36:31.025Z,941.57
2019-02-20T00:37:31.753Z,941.56
2019-02-20T00:38:32.731Z,941.54
2019-02-20T00:39:33.259Z,941.54
2019-02-20T00:40:33.955Z,941.55
2019-02-20T00:41:34.675Z,941.54
2019-02-20T00:42:35.427Z,941.58
2019-02-20T00:43:35.974Z,941.55
2019-02-20T00:44:37.418Z,941.59
2019-02-20T00:45:38.567Z,941.56
2019-02-20T00:46:39.536Z,941.59
2019-02-20T00:47:40.515Z,941.57
2019-02-20T00:48:41.236Z,941.56
2019-02-20T00:49:41.930Z,941.53
2019-02-20T00:50:42.914Z,941.58
2019-02-20T00:51:43.638Z,941.58
2019-02-20T00:52:50.678Z,941.53
2019-02-20T00:52:56.669Z,941.54
2019-02-20T00:53:57.216Z,941.53
2019-02-20T00:54:57.631Z,941.59
2019-02-20T00:55:58.451Z,941.54
2019-02-20T00:56:59.442Z,941.5
2019-02-20T00:58:00.169Z,941.52
2019-02-20T00:59:00.875Z,941.53
2019-02-20T01:00:01.447Z,941.54
2019-02-20T01:01:02.155Z,941.52
2019-02-20T01:02:02.503Z,941.49
2019-02-20T01:03:03.222Z,941.51
2019-02-20T01:04:04.074Z,941.47
2019-02-20T01:05:05.409Z,941.43
2019-02-20T01:06:06.108Z,941.48
2019-02-20T01:07:06.288Z,941.49
2019-02-20T01:08:07.037Z,941.46
2019-02-20T01:09:07.748Z,941.47
2019-02-20T01:10:08.007Z,941.45
2019-02-20T01:11:08.976Z,941.46
2019-02-20T01:12:09.690Z,941.43
2019-02-20T01:13:10.381Z,941.46
2019-02-20T01:14:11.532Z,941.47
2019-02-20T01:15:12.230Z,941.45
2019-02-20T01:16:12.650Z,941.44
2019-02-20T01:17:13.191Z,941.41
2019-02-20T01:18:13.919Z,941.38
2019-02-20T01:19:14.217Z,941.41
2019-02-20T01:20:15.228Z,941.38
2019-02-20T01:21:16.255Z,941.38
2019-02-20T01:22:16.666Z,941.41
2019-02-20T01:23:17.664Z,941.4
2019-02-20T01:24:18.215Z,941.38
2019-02-20T01:25:19.216Z,941.41
2019-02-20T01:26:20.464Z,941.42
2019-02-20T01:27:21.161Z,941.44
2019-02-20T01:28:22.446Z,941.45
2019-02-20T01:29:22.875Z,941.46
2019-02-20T01:30:23.871Z,941.45
2019-02-20T01:31:25.118Z,941.43
2019-02-20T01:32:25.536Z,941.42
2019-02-20T01:33:26.071Z,941.38
2019-02-20T01:34:26.768Z,941.39
2019-02-20T01:35:28.020Z,941.36
2019-02-20T01:36:29.041Z,941.34
2019-02-20T01:37:29.456Z,941.39
2019-02-20T01:38:30.157Z,941.36
2019-02-20T01:39:31.402Z,941.37
2019-02-20T01:40:31.648Z,941.4
2019-02-20T01:41:32.352Z,941.4
2019-02-20T01:42:32.777Z,941.38
2019-02-20T01:43:33.313Z,941.37
2019-02-20T01:44:34.475Z,941.37
2019-02-20T01:45:35.179Z,941.33
2019-02-20T01:46:36.162Z,941.36
2019-02-20T01:47:37.417Z,941.32
2019-02-20T01:48:38.138Z,941.31
2019-02-20T01:49:38.850Z,941.3
2019-02-20T01:50:39.277Z,941.3
2019-02-20T01:51:39.983Z,941.28
2019-02-20T01:52:40.403Z,941.33
2019-02-20T01:53:41.662Z,941.37
2019-02-20T01:54:42.137Z,941.28
2019-02-20T01:55:43.133Z,941.31
2019-02-20T01:56:43.560Z,941.31
2019-02-20T01:57:43.980Z,941.28
2019-02-20T01:58:44.969Z,941.28
2019-02-20T01:59:45.280Z,941.28
2019-02-20T02:00:46.692Z,941.27
2019-02-20T02:01:47.382Z,941.27
2019-02-20T02:02:48.376Z,941.27
2019-02-20T02:03:48.816Z,941.28
2019-02-20T02:04:49.822Z,941.25
2019-02-20T02:05:50.140Z,941.23
2019-02-20T02:06:50.572Z,941.22
2019-02-20T02:07:51.849Z,941.21
2019-02-20T02:08:52.572Z,941.22
2019-02-20T02:09:53.562Z,941.22
2019-02-20T02:10:54.526Z,941.23
2019-02-20T02:11:55.220Z,941.24
2019-02-20T02:12:56.211Z,941.28
2019-02-20T02:13:56.626Z,941.23
2019-02-20T02:14:58.052Z,941.27
2019-02-20T02:15:59.125Z,941.23
2019-02-20T02:17:00.100Z,941.24
2019-02-20T02:18:00.381Z,941.22
2019-02-20T02:19:01.077Z,941.23
2019-02-20T02:20:01.941Z,941.25
2019-02-20T02:21:02.641Z,941.3
2019-02-20T02:22:03.612Z,941.26
2019-02-20T02:23:04.593Z,941.27
2019-02-20T02:24:05.320Z,941.24
2019-02-20T02:25:06.626Z,941.31
2019-02-20T02:26:11.644Z,941.27
2019-02-20T02:27:12.391Z,941.29
2019-02-20T02:28:13.129Z,941.3
2019-02-20T02:29:13.557Z,941.31
2019-02-20T02:30:14.665Z,941.31
2019-02-20T02:31:14.982Z,941.31
2019-02-20T02:32:15.310Z,941.32
2019-02-20T02:33:16.649Z,941.33
2019-02-20T02:34:17.351Z,941.27
2019-02-20T02:35:18.090Z,941.29
2019-02-20T02:36:19.072Z,941.31
2019-02-20T02:37:20.201Z,941.27
2019-02-20T02:38:20.892Z,941.24
2019-02-20T02:39:21.141Z,941.25
2019-02-20T02:40:22.131Z,941.24
2019-02-20T02:41:23.147Z,941.26
2019-02-20T02:42:24.128Z,941.25
2019-02-20T02:43:25.109Z,941.22
2019-02-20T02:44:26.436Z,941.22
2019-02-20T02:45:27.356Z,941.25
2019-02-20T02:46:28.390Z,941.2
2019-02-20T02:47:29.439Z,941.22
2019-02-20T02:48:30.420Z,941.22
2019-02-20T02:49:31.196Z,941.22
2019-02-20T02:50:32.032Z,941.22
2019-02-20T02:51:32.288Z,941.2
2019-02-20T02:52:33.543Z,941.21
2019-02-20T02:53:34.826Z,941.26
2019-02-20T02:54:35.128Z,941.23
2019-02-20T02:55:35.632Z,941.24
2019-02-20T02:56:36.618Z,941.21
2019-02-20T02:57:37.660Z,941.22
2019-02-20T02:58:38.371Z,941.2
2019-02-20T02:59:39.085Z,941.24
2019-02-20T03:00:40.171Z,941.19
2019-02-20T03:01:41.168Z,941.19
2019-02-20T03:02:42.409Z,941.17
2019-02-20T03:03:43.404Z,941.17
2019-02-20T03:04:44.129Z,941.21
2019-02-20T03:05:44.842Z,941.2
2019-02-20T03:06:45.673Z,941.18
2019-02-20T03:07:46.217Z,941.18
2019-02-20T03:08:46.758Z,941.17
2019-02-20T03:09:47.760Z,941.17
2019-02-20T03:10:48.087Z,941.19
2019-02-20T03:11:48.499Z,941.19
2019-02-20T03:12:49.503Z,941.2
2019-02-20T03:13:50.209Z,941.21
2019-02-20T03:14:51.194Z,941.18
2019-02-20T03:15:51.903Z,941.15
2019-02-20T03:16:52.595Z,941.17
2019-02-20T03:17:53.315Z,941.18
2019-02-20T03:18:54.018Z,941.18
2019-02-20T03:19:54.741Z,941.19
2019-02-20T03:20:55.436Z,941.18
2019-02-20T03:21:55.693Z,941.2
2019-02-20T03:22:55.961Z,941.15
2019-02-20T03:23:56.949Z,941.15
2019-02-20T03:24:57.259Z,941.18
2019-02-20T03:25:57.782Z,941.18
2019-02-20T03:26:58.495Z,941.13
2019-02-20T03:27:59.187Z,941.2
2019-02-20T03:28:59.457Z,941.18
2019-02-20T03:29:59.723Z,941.25
2019-02-20T03:31:00.592Z,941.2
2019-02-20T03:32:01.021Z,941.26
2019-02-20T03:33:02.136Z,941.25
2019-02-20T03:34:03.481Z,941.27
2019-02-20T03:35:03.654Z,941.27
2019-02-20T03:36:04.801Z,941.26
2019-02-20T03:37:06.057Z,941.25
2019-02-20T03:38:06.485Z,941.26
2019-02-20T03:39:07.464Z,941.26
2019-02-20T03:40:08.447Z,941.26
2019-02-20T03:41:09.379Z,941.26
2019-02-20T03:42:10.366Z,941.26
2019-02-20T03:43:10.938Z,941.23
2019-02-20T03:44:11.491Z,941.26
2019-02-20T03:45:12.197Z,941.2
2019-02-20T03:46:12.916Z,941.24
2019-02-20T03:47:13.935Z,941.26
2019-02-20T03:48:14.900Z,941.27
2019-02-20T03:49:15.904Z,941.27
2019-02-20T03:50:16.325Z,941.22
2019-02-20T03:51:17.045Z,941.25
2019-02-20T03:52:18.029Z,941.26
2019-02-20T03:53:18.999Z,941.29
2019-02-20T03:54:19.987Z,941.28
2019-02-20T03:55:20.962Z,941.27
2019-02-20T03:56:21.966Z,941.34
2019-02-20T03:57:22.657Z,941.32
2019-02-20T03:58:23.201Z,941.36
2019-02-20T03:59:23.616Z,941.41
2019-02-20T04:00:24.186Z,941.41
2019-02-20T04:01:24.878Z,941.4
2019-02-20T04:02:26.137Z,941.38
2019-02-20T04:03:27.258Z,941.4
2019-02-20T04:04:27.945Z,941.43
2019-02-20T04:05:29.219Z,941.4
2019-02-20T04:06:29.687Z,941.4
2019-02-20T04:07:30.848Z,941.43
2019-02-20T04:08:31.418Z,941.45
2019-02-20T04:09:32.224Z,941.42
2019-02-20T04:10:32.757Z,941.45
2019-02-20T04:11:33.450Z,941.5
2019-02-20T04:12:34.483Z,941.48
2019-02-20T04:13:34.897Z,941.52
2019-02-20T04:14:35.589Z,941.54
2019-02-20T04:15:36.940Z,941.55
2019-02-20T04:16:37.561Z,941.55
2019-02-20T04:17:38.269Z,941.57
2019-02-20T04:18:38.964Z,941.56
2019-02-20T04:19:39.491Z,941.57
2019-02-20T04:20:40.198Z,941.59
2019-02-20T04:21:40.625Z,941.63
2019-02-20T04:22:41.611Z,941.56
2019-02-20T04:23:42.423Z,941.63
2019-02-20T04:24:43.138Z,941.64
2019-02-20T04:25:43.672Z,941.61
2019-02-20T04:26:44.998Z,941.66
2019-02-20T04:27:46.145Z,941.65
2019-02-20T04:28:47.116Z,941.67
2019-02-20T04:29:47.803Z,941.66
2019-02-20T04:30:48.052Z,941.7
2019-02-20T04:31:48.763Z,941.7
2019-02-20T04:32:49.173Z,941.71
2019-02-20T04:33:49.400Z,941.66
2019-02-20T04:34:50.144Z,941.72
2019-02-20T04:35:50.910Z,941.69
2019-02-20T04:36:51.613Z,941.71
2019-02-20T04:37:52.312Z,941.72
2019-02-20T04:38:53.566Z,941.7
2019-02-20T04:39:54.083Z,941.72
2019-02-20T04:40:55.389Z,941.65
2019-02-20T04:41:56.682Z,941.66
2019-02-20T04:42:59.104Z,941.66
2019-02-20T04:43:59.629Z,941.7
2019-02-20T04:45:00.290Z,941.71
2019-02-20T04:46:01.434Z,941.69
2019-02-20T04:47:02.708Z,941.71
2019-02-20T04:48:02.949Z,941.71
2019-02-20T04:49:03.789Z,941.69
2019-02-20T04:50:04.303Z,941.71
2019-02-20T04:51:04.713Z,941.69
2019-02-20T04:52:05.425Z,941.68
2019-02-20T04:53:06.124Z,941.67
2019-02-20T04:54:14.280Z,941.65
2019-02-20T04:54:19.863Z,941.66
2019-02-20T04:55:20.293Z,941.68
2019-02-20T04:56:20.981Z,941.65
2019-02-20T04:57:21.958Z,941.64
2019-02-20T04:58:22.534Z,941.69
2019-02-20T04:59:23.218Z,941.65
2019-02-20T05:00:23.905Z,941.64
2019-02-20T05:01:24.445Z,941.62
2019-02-20T05:02:24.857Z,941.67
2019-02-20T05:03:25.375Z,941.62
2019-02-20T05:04:26.095Z,941.6
2019-02-20T05:05:26.782Z,941.64
2019-02-20T05:06:27.302Z,941.58
2019-02-20T05:07:27.562Z,941.57
2019-02-20T05:08:27.876Z,941.55
2019-02-20T05:09:28.353Z,941.55
2019-02-20T05:10:28.606Z,941.57
2019-02-20T05:11:29.649Z,941.56
2019-02-20T05:12:29.919Z,941.53
2019-02-20T05:13:30.172Z,941.53
2019-02-20T05:14:30.423Z,941.57
2019-02-20T05:15:30.813Z,941.54
2019-02-20T05:16:31.551Z,941.54
2019-02-20T05:17:31.825Z,941.54
2019-02-20T05:18:32.512Z,941.53
2019-02-20T05:19:33.119Z,941.51
2019-02-20T05:20:33.588Z,941.49
2019-02-20T05:21:34.863Z,941.49
2019-02-20T05:22:35.294Z,941.48
2019-02-20T05:23:35.987Z,941.5
2019-02-20T05:24:36.728Z,941.47
2019-02-20T05:25:37.024Z,941.48
2019-02-20T05:26:37.445Z,941.47
2019-02-20T05:27:38.747Z,941.5
2019-02-20T05:28:39.001Z,941.49
2019-02-20T05:29:39.995Z,941.44
2019-02-20T05:30:40.697Z,941.46
2019-02-20T05:31:41.231Z,941.5
2019-02-20T05:32:41.777Z,941.49
2019-02-20T05:33:42.750Z,941.49
2019-02-20T05:34:43.714Z,941.5
2019-02-20T05:35:44.426Z,941.5
2019-02-20T05:36:45.014Z,941.52
2019-02-20T05:37:46.424Z,941.47
2019-02-20T05:38:47.397Z,941.5
2019-02-20T05:39:48.081Z,941.53
2019-02-20T05:40:49.348Z,941.55
2019-02-20T05:41:50.314Z,941.59
2019-02-20T05:42:50.850Z,941.61
2019-02-20T05:43:51.374Z,941.56
2019-02-20T05:44:52.116Z,941.59
2019-02-20T05:45:52.860Z,941.6
2019-02-20T05:46:54.125Z,941.55
2019-02-20T05:47:54.859Z,941.56
2019-02-20T05:48:55.293Z,941.55
2019-02-20T05:49:55.837Z,941.54
2019-02-20T05:50:57.098Z,941.57
2019-02-20T05:51:58.075Z,941.55
2019-02-20T05:52:58.337Z,941.57
2019-02-20T05:53:59.042Z,941.56
2019-02-20T05:54:59.597Z,941.56
2019-02-20T05:56:00.163Z,941.61
2019-02-20T05:57:00.763Z,941.65
2019-02-20T05:58:01.741Z,941.66
2019-02-20T05:59:02.366Z,941.67
2019-02-20T06:00:03.050Z,941.67
2019-02-20T06:01:03.687Z,941.71
2019-02-20T06:02:04.372Z,941.7
2019-02-20T06:03:05.488Z,941.7
2019-02-20T06:04:06.557Z,941.76
2019-02-20T06:05:07.153Z,941.74
2019-02-20T06:06:08.304Z,941.75
2019-02-20T06:07:08.988Z,941.77
2019-02-20T06:08:09.697Z,941.8
2019-02-20T06:09:10.108Z,941.83
2019-02-20T06:10:10.852Z,941.88
2019-02-20T06:11:15.752Z,941.86
2019-02-20T06:12:16.483Z,941.89
2019-02-20T06:13:17.006Z,941.9
2019-02-20T06:14:17.737Z,941.93
2019-02-20T06:15:18.866Z,941.9
2019-02-20T06:16:19.588Z,941.88
2019-02-20T06:17:20.300Z,941.89
2019-02-20T06:18:21.550Z,941.88
2019-02-20T06:19:22.797Z,941.88
2019-02-20T06:20:23.577Z,941.86
2019-02-20T06:21:24.827Z,941.88
2019-02-20T06:22:25.606Z,941.9
2019-02-20T06:23:26.551Z,941.94
2019-02-20T06:24:27.752Z,941.96
2019-02-20T06:25:28.734Z,942
2019-02-20T06:26:29.140Z,942.06
2019-02-20T06:27:29.869Z,942.09
2019-02-20T06:28:30.289Z,942.14
2019-02-20T06:29:30.984Z,942.13
2019-02-20T06:30:31.959Z,942.16
2019-02-20T06:31:32.212Z,942.17
2019-02-20T06:32:32.621Z,942.18
2019-02-20T06:33:33.164Z,942.22
2019-02-20T06:34:34.177Z,942.22
2019-02-20T06:35:34.897Z,942.22
2019-02-20T06:36:35.863Z,942.23
2019-02-20T06:37:37.137Z,942.24
2019-02-20T06:38:37.959Z,942.27
2019-02-20T06:39:38.621Z,942.23
2019-02-20T06:40:39.684Z,942.28
2019-02-20T06:41:40.038Z,942.26
2019-02-20T06:42:40.716Z,942.31
2019-02-20T06:43:42.465Z,942.3
2019-02-20T06:44:43.390Z,942.36
2019-02-20T06:45:43.801Z,942.34
2019-02-20T06:46:44.293Z,942.36
2019-02-20T06:47:45.064Z,942.38
2019-02-20T06:48:45.313Z,942.38
2019-02-20T06:49:46.724Z,942.41
2019-02-20T06:50:47.288Z,942.43
2019-02-20T06:51:48.292Z,942.45
2019-02-20T06:52:48.720Z,942.46
2019-02-20T06:53:49.144Z,942.47
2019-02-20T06:54:54.490Z,942.5
2019-02-20T06:55:02.088Z,942.47
2019-02-20T06:56:02.498Z,942.51
2019-02-20T06:57:03.573Z,942.53
2019-02-20T06:58:03.834Z,942.52
2019-02-20T06:59:05.182Z,942.6
2019-02-20T07:00:05.402Z,942.57
2019-02-20T07:01:05.573Z,942.62
2019-02-20T07:02:06.068Z,942.6
2019-02-20T07:03:06.922Z,942.59
2019-02-20T07:04:07.893Z,942.62
2019-02-20T07:05:08.597Z,942.65
2019-02-20T07:06:09.097Z,942.66
2019-02-20T07:07:09.511Z,942.66
2019-02-20T07:08:10.482Z,942.67
2019-02-20T07:09:11.491Z,942.69
2019-02-20T07:10:12.600Z,942.71
2019-02-20T07:11:15.028Z,942.73
2019-02-20T07:12:15.912Z,942.74
2019-02-20T07:13:16.941Z,942.74
2019-02-20T07:14:18.372Z,942.75
2019-02-20T07:15:19.128Z,942.77
2019-02-20T07:16:20.459Z,942.73
2019-02-20T07:17:20.945Z,942.74
2019-02-20T07:18:20.945Z,942.76
2019-02-20T07:19:21.916Z,942.75
2019-02-20T07:20:22.617Z,942.78
2019-02-20T07:21:23.306Z,942.79
2019-02-20T07:22:24.038Z,942.78
2019-02-20T07:23:26.019Z,942.8
2019-02-20T07:24:25.899Z,942.82
2019-02-20T07:25:26.736Z,942.85
2019-02-20T07:26:27.565Z,942.84
2019-02-20T07:27:28.593Z,942.85
2019-02-20T07:28:29.282Z,942.88
2019-02-20T07:29:30.257Z,942.86
2019-02-20T07:30:31.263Z,942.86
2019-02-20T07:31:31.965Z,942.88
2019-02-20T07:32:33.218Z,942.87
2019-02-20T07:33:33.551Z,942.88
2019-02-20T07:34:34.898Z,942.86
2019-02-20T07:35:35.182Z,942.92
2019-02-20T07:36:35.974Z,942.89
2019-02-20T07:37:36.970Z,942.9
2019-02-20T07:38:37.983Z,942.93
2019-02-20T07:39:38.463Z,942.96
2019-02-20T07:40:38.745Z,942.95
2019-02-20T07:41:39.980Z,942.97
2019-02-20T07:42:40.398Z,942.95
2019-02-20T07:43:41.403Z,942.96
2019-02-20T07:44:41.835Z,942.91
2019-02-20T07:45:42.597Z,942.96
2019-02-20T07:46:42.819Z,942.95
2019-02-20T07:47:43.528Z,942.94
2019-02-20T07:48:43.777Z,942.95
2019-02-20T07:49:44.259Z,942.98
2019-02-20T07:50:44.985Z,942.99
2019-02-20T07:51:45.686Z,943.06
2019-02-20T07:52:46.685Z,943.08
2019-02-20T07:53:47.065Z,943.13
2019-02-20T07:54:47.532Z,943.11
2019-02-20T07:55:47.953Z,943.11
2019-02-20T07:56:48.167Z,943.1
2019-02-20T07:57:48.887Z,943.11
2019-02-20T07:58:49.894Z,943.11
2019-02-20T07:59:51.233Z,943.13
2019-02-20T08:00:52.290Z,943.16
2019-02-20T08:01:52.884Z,943.11
2019-02-20T08:02:53.870Z,943.05
2019-02-20T08:03:54.402Z,943.12
2019-02-20T08:04:55.384Z,943.09
2019-02-20T08:05:56.099Z,943.1
2019-02-20T08:06:57.077Z,943.1
2019-02-20T08:07:59.039Z,943.1
2019-02-20T08:08:10.332Z,943.12
2019-02-20T08:08:23.353Z,943.08
2019-02-20T08:08:35.339Z,943.07
2019-02-20T08:08:46.959Z,943.05
2019-02-20T08:09:47.584Z,943.09
2019-02-20T08:10:48.396Z,943.15
2019-02-20T08:11:49.537Z,943.08
2019-02-20T08:12:50.199Z,943.1
2019-02-20T08:13:51.319Z,943.06
2019-02-20T08:14:52.020Z,943.13
2019-02-20T08:15:52.708Z,943.14
2019-02-20T08:16:53.697Z,943.11
2019-02-20T08:17:54.956Z,943.09
2019-02-20T08:18:55.708Z,943.12
2019-02-20T08:19:56.847Z,943.1
2019-02-20T08:20:57.866Z,943.07
2019-02-20T08:21:59.004Z,943.1
2019-02-20T08:22:59.907Z,943.1
2019-02-20T08:24:00.550Z,943.07
2019-02-20T08:25:00.921Z,943.07
2019-02-20T08:26:01.911Z,943.09
2019-02-20T08:27:02.487Z,943.13
2019-02-20T08:28:03.122Z,943.09
2019-02-20T08:29:04.398Z,943.14
2019-02-20T08:30:05.484Z,943.11
2019-02-20T08:31:06.434Z,943.07
2019-02-20T08:32:07.410Z,943.08
2019-02-20T08:33:08.101Z,943.08
2019-02-20T08:34:09.239Z,943.08
2019-02-20T08:35:09.492Z,943.11
2019-02-20T08:36:10.190Z,943.09
2019-02-20T08:37:10.889Z,943.14
2019-02-20T08:38:11.168Z,943.18
2019-02-20T08:39:11.580Z,943.18
2019-02-20T08:40:11.957Z,943.22
2019-02-20T08:41:13.088Z,943.18
2019-02-20T08:42:14.118Z,943.2
2019-02-20T08:43:15.258Z,943.24
2019-02-20T08:44:15.546Z,943.2
2019-02-20T08:45:16.123Z,943.2
2019-02-20T08:46:16.877Z,943.21
2019-02-20T08:47:17.892Z,943.16
2019-02-20T08:48:18.801Z,943.15
2019-02-20T08:49:20.302Z,943.17
2019-02-20T08:50:21.132Z,943.15
2019-02-20T08:51:21.743Z,943.13
2019-02-20T08:52:22.745Z,943.16
2019-02-20T08:52:35.421Z,943.13
2019-02-20T08:53:35.808Z,943.13
2019-02-20T08:54:36.506Z,943.19
2019-02-20T08:55:37.057Z,943.22
2019-02-20T08:56:37.879Z,943.22
2019-02-20T08:57:38.863Z,943.22
2019-02-20T08:58:39.611Z,943.26
2019-02-20T08:59:41.027Z,943.25
2019-02-20T09:00:41.743Z,943.24
2019-02-20T09:01:43.004Z,943.28
2019-02-20T09:02:43.579Z,943.28
2019-02-20T09:03:44.683Z,943.29
2019-02-20T09:04:45.216Z,943.31
2019-02-20T09:05:46.238Z,943.36
2019-02-20T09:06:48.014Z,943.37
2019-02-20T09:06:59.601Z,943.35
2019-02-20T09:07:12.194Z,943.35
2019-02-20T09:08:12.053Z,943.37
2019-02-20T09:09:12.752Z,943.4
2019-02-20T09:10:13.170Z,943.39
2019-02-20T09:11:14.046Z,943.4
2019-02-20T09:12:14.630Z,943.42
2019-02-20T09:13:15.194Z,943.43
2019-02-20T09:14:16.243Z,943.37
2019-02-20T09:15:16.664Z,943.39
2019-02-20T09:16:18.064Z,943.39
2019-02-20T09:17:18.918Z,943.37
2019-02-20T09:18:19.750Z,943.34
2019-02-20T09:19:20.056Z,943.34
2019-02-20T09:20:20.758Z,943.32
2019-02-20T09:21:21.628Z,943.3
2019-02-20T09:22:22.466Z,943.33
2019-02-20T09:23:23.776Z,943.34
2019-02-20T09:24:24.323Z,943.35
2019-02-20T09:25:27.109Z,943.38
2019-02-20T09:26:27.410Z,943.36
2019-02-20T09:27:28.002Z,943.35
2019-02-20T09:28:28.301Z,943.36
2019-02-20T09:29:29.307Z,943.4
2019-02-20T09:30:30.609Z,943.4
2019-02-20T09:31:31.227Z,943.42
2019-02-20T09:32:32.245Z,943.44
2019-02-20T09:33:33.225Z,943.49
2019-02-20T09:34:34.408Z,943.47
2019-02-20T09:35:35.440Z,943.45
2019-02-20T09:36:36.218Z,943.51
2019-02-20T09:37:38.794Z,943.53
2019-02-20T09:37:49.587Z,943.55
2019-02-20T09:38:49.518Z,943.57
2019-02-20T09:39:49.934Z,943.61
2019-02-20T09:40:50.629Z,943.64
2019-02-20T09:41:51.048Z,943.65
2019-02-20T09:42:51.471Z,943.63
2019-02-20T09:43:52.350Z,943.64
2019-02-20T09:44:52.506Z,943.65
2019-02-20T09:45:53.852Z,943.65
2019-02-20T09:46:54.434Z,943.64
2019-02-20T09:47:55.061Z,943.62
2019-02-20T09:48:56.204Z,943.59
2019-02-20T09:49:57.220Z,943.6
2019-02-20T09:50:57.644Z,943.68
2019-02-20T09:51:58.345Z,943.64
2019-02-20T09:52:59.065Z,943.62
2019-02-20T09:54:00.045Z,943.63
2019-02-20T09:55:00.744Z,943.61
2019-02-20T09:56:01.565Z,943.66
2019-02-20T09:57:02.901Z,943.67
2019-02-20T09:58:03.153Z,943.63
2019-02-20T09:59:03.651Z,943.65
2019-02-20T10:00:06.003Z,943.66
2019-02-20T10:00:16.634Z,943.64
2019-02-20T10:01:19.275Z,943.67
2019-02-20T10:01:29.948Z,943.65
2019-02-20T10:02:30.718Z,943.67
2019-02-20T10:03:31.536Z,943.72
2019-02-20T10:04:32.534Z,943.77
2019-02-20T10:05:33.717Z,943.74
2019-02-20T10:06:34.418Z,943.74
2019-02-20T10:07:35.410Z,943.77
2019-02-20T10:08:36.585Z,943.79
2019-02-20T10:09:37.312Z,943.74
2019-02-20T10:10:37.608Z,943.75
2019-02-20T10:11:38.312Z,943.77
2019-02-20T10:12:39.397Z,943.77
2019-02-20T10:13:40.416Z,943.78
2019-02-20T10:14:41.404Z,943.73
2019-02-20T10:15:42.411Z,943.76
2019-02-20T10:16:42.947Z,943.75
2019-02-20T10:17:43.143Z,943.77
2019-02-20T10:18:45.830Z,943.73
2019-02-20T10:18:56.437Z,943.8
2019-02-20T10:19:56.321Z,943.79
2019-02-20T10:20:57.335Z,943.78
2019-02-20T10:21:59.873Z,943.8
2019-02-20T10:22:10.678Z,943.82
2019-02-20T10:23:12.793Z,943.88
2019-02-20T10:24:12.909Z,943.95
2019-02-20T10:25:13.642Z,943.95
2019-02-20T10:26:14.647Z,943.92
2019-02-20T10:27:15.762Z,943.97
2019-02-20T10:28:16.768Z,943.97
2019-02-20T10:29:17.755Z,943.98
2019-02-20T10:30:18.307Z,943.99
2019-02-20T10:31:19.293Z,944.01
2019-02-20T10:32:19.533Z,944.04
2019-02-20T10:33:21.706Z,944.02
2019-02-20T10:34:22.220Z,944.05
2019-02-20T10:35:22.939Z,944.07
2019-02-20T10:36:23.681Z,944.07
2019-02-20T10:37:24.685Z,944.04
2019-02-20T10:38:25.675Z,944.07
2019-02-20T10:39:26.686Z,944.09
2019-02-20T10:40:27.667Z,944.07
2019-02-20T10:41:28.371Z,944.03
2019-02-20T10:42:28.940Z,944.04
2019-02-20T10:43:29.983Z,944.04
2019-02-20T10:44:31.012Z,944.06
2019-02-20T10:45:32.165Z,944.01
2019-02-20T10:46:32.865Z,944.02
2019-02-20T10:47:33.296Z,944.04
2019-02-20T10:48:33.908Z,944.03
2019-02-20T10:49:35.980Z,943.98
2019-02-20T10:50:36.163Z,944.03
2019-02-20T10:51:37.314Z,944
2019-02-20T10:52:38.032Z,944.02
2019-02-20T10:53:39.515Z,944.02
2019-02-20T10:54:40.284Z,943.98
2019-02-20T10:55:40.719Z,944
2019-02-20T10:56:41.618Z,944.02
2019-02-20T10:57:42.466Z,943.98
2019-02-20T10:58:43.450Z,943.98
2019-02-20T10:59:44.155Z,944
2019-02-20T11:00:44.583Z,943.99
2019-02-20T11:01:45.053Z,944.01
2019-02-20T11:02:45.764Z,943.98
2019-02-20T11:03:47.222Z,943.95
2019-02-20T11:04:50.114Z,944
2019-02-20T11:05:02.767Z,944.03
2019-02-20T11:05:14.899Z,944.03
2019-02-20T11:05:27.318Z,944.01
2019-02-20T11:05:39.255Z,944.02
2019-02-20T11:06:39.403Z,944.02
2019-02-20T11:07:39.693Z,944.01
2019-02-20T11:08:40.701Z,943.97
2019-02-20T11:09:41.717Z,943.98
2019-02-20T11:10:41.651Z,943.97
2019-02-20T11:11:41.908Z,943.93
2019-02-20T11:12:42.893Z,943.93
2019-02-20T11:13:43.943Z,943.96
2019-02-20T11:14:44.829Z,943.94
2019-02-20T11:15:45.485Z,943.91
2019-02-20T11:16:47.478Z,943.9
2019-02-20T11:16:58.599Z,943.91
2019-02-20T11:17:58.484Z,943.89
2019-02-20T11:18:58.759Z,943.88
2019-02-20T11:19:59.742Z,943.88
2019-02-20T11:21:01.195Z,943.87
2019-02-20T11:22:02.182Z,943.84
2019-02-20T11:23:02.626Z,943.79
2019-02-20T11:24:03.047Z,943.86
2019-02-20T11:25:03.869Z,943.83
2019-02-20T11:26:05.446Z,943.83
2019-02-20T11:27:06.216Z,943.79
2019-02-20T11:28:06.682Z,943.78
2019-02-20T11:29:07.264Z,943.76
2019-02-20T11:30:07.968Z,943.82
2019-02-20T11:31:08.846Z,943.79
2019-02-20T11:32:11.729Z,943.78
2019-02-20T11:33:11.568Z,943.72
2019-02-20T11:34:12.271Z,943.75
2019-02-20T11:35:13.252Z,943.71
2019-02-20T11:36:15.728Z,943.71
2019-02-20T11:36:27.695Z,943.71
2019-02-20T11:37:27.329Z,943.71
2019-02-20T11:38:30.881Z,943.69
2019-02-20T11:38:40.008Z,943.71
2019-02-20T11:39:40.601Z,943.7
2019-02-20T11:40:41.404Z,943.69
2019-02-20T11:41:43.157Z,943.7
2019-02-20T11:42:43.911Z,943.67
2019-02-20T11:43:44.912Z,943.68
2019-02-20T11:44:45.686Z,943.7
2019-02-20T11:45:47.783Z,943.68
2019-02-20T11:46:48.046Z,943.7
2019-02-20T11:47:49.008Z,943.68
2019-02-20T11:48:49.630Z,943.7
2019-02-20T11:49:50.046Z,943.7
2019-02-20T11:50:51.957Z,943.75
2019-02-20T11:51:52.380Z,943.76
2019-02-20T11:52:54.222Z,943.77
2019-02-20T11:53:05.456Z,943.76
2019-02-20T11:54:05.202Z,943.76
2019-02-20T11:55:06.193Z,943.71
2019-02-20T11:56:06.707Z,943.69
2019-02-20T11:57:08.833Z,943.7
2019-02-20T11:57:20.794Z,943.72
2019-02-20T11:58:21.632Z,943.7
2019-02-20T11:59:23.055Z,943.68
2019-02-20T12:00:23.332Z,943.67
2019-02-20T12:01:23.534Z,943.67
2019-02-20T12:02:26.005Z,943.68
2019-02-20T12:03:26.430Z,943.68
2019-02-20T12:04:27.510Z,943.7
2019-02-20T12:05:27.996Z,943.65
2019-02-20T12:06:28.496Z,943.66
2019-02-20T12:07:29.659Z,943.69
2019-02-20T12:08:30.291Z,943.7
2019-02-20T12:09:31.274Z,943.73
2019-02-20T12:10:31.468Z,943.72
2019-02-20T12:11:32.453Z,943.7
2019-02-20T12:12:33.454Z,943.77
2019-02-20T12:13:34.436Z,943.74
2019-02-20T12:14:35.371Z,943.74
2019-02-20T12:15:35.807Z,943.76
2019-02-20T12:16:36.955Z,943.78
2019-02-20T12:17:38.214Z,943.75
2019-02-20T12:18:23.745Z,943.76
2019-02-20T12:19:24.074Z,943.73
2019-02-20T12:20:24.517Z,943.75
2019-02-20T12:21:25.849Z,943.74